Time;durP1;ratioP1;P1;durP2;ratioP2;P2;SDS_P1;SDS_P2;PMS_P1;PMS_P2;Temp;Humidity;BMP_temperature;BMP_pressure;BME280_temperature;BME280_humidity;BME280_pressure;Samples;Min_cycle;Max_cycle;Signal;HPM_P1;HPM_P2
2023/10/16 00:01:43;;;;;;;;;;;;;;;-147.89;100.00;60788.38;4230388;28;20303;-62
2023/10/16 00:03:44;;;;;;;;;;;;;;;-147.89;100.00;60788.38;4230717;28;19930;-63
2023/10/16 00:05:49;;;;;;;;;;;;;;;-147.89;100.00;60788.38;4230687;28;20386;-63
2023/10/16 00:07:51;;;;;;;;;;;;;;;-147.89;100.00;60788.38;4230460;28;19932;-63
2023/10/16 00:09:55;;;;;;;;;;;;;;;-147.89;100.00;60788.38;4230460;28;19986;-63
2023/10/16 00:11:58;;;;;;;;;;;;;;;-147.89;100.00;60788.38;4230515;28;20309;-64
2023/10/16 00:14:00;;;;;;;;;;;;;;;-147.89;100.00;60788.38;4230431;28;19939;-63
2023/10/16 00:16:02;;;;;;;;;;;;;;;-147.89;100.00;60788.38;4230381;28;19924;-63
2023/10/16 00:18:09;;;;;;;;;;;;;;;-147.89;100.00;60788.38;4230202;28;19970;-63
2023/10/16 00:20:19;;;;;;;;;;;;;;;-147.89;100.00;60788.38;4230400;28;19980;-63
2023/10/16 00:22:20;;;;;;;;;;;;;;;-147.89;100.00;60788.38;4212454;28;19939;-63
2023/10/16 00:24:22;;;;;;;;;;;;;;;-147.89;100.00;60788.38;4230268;28;19967;-63
2023/10/16 00:26:23;;;;;;;;;;;;;;;-147.89;100.00;60788.38;4230522;28;19927;-63
2023/10/16 00:28:26;;;;;;;;;;;;;;;-147.89;100.00;60788.38;4230459;28;19935;-64
2023/10/16 00:30:31;;;;;;;;;;;;;;;-147.89;100.00;60788.38;4230423;28;19924;-64
2023/10/16 00:32:36;;;;;;;;;;;;;;;-147.89;100.00;60788.38;4230152;28;20446;-63
2023/10/16 00:34:39;;;;;;;;;;;;;;;-147.89;100.00;60788.38;4230454;28;19950;-64
2023/10/16 00:36:40;;;;;;;;;;;;;;;-147.89;100.00;60788.38;4230261;28;19927;-63
2023/10/16 00:38:47;;;;;;;;;;;;;;;-147.89;100.00;60788.38;4230283;28;19924;-64
2023/10/16 00:41:32;;;;;;;;;;;;;;;-147.89;100.00;60788.38;4230215;28;19928;-64
2023/10/16 00:43:19;;;;;;;;;;;;;;;-147.89;100.00;60788.38;4221989;28;20337;-63
2023/10/16 00:45:21;;;;;;;;;;;;;;;-147.89;100.00;60788.38;4230631;28;20253;-62
2023/10/16 00:47:24;;;;;;;;;;;;;;;-147.89;100.00;60788.38;4229955;28;19924;-62
2023/10/16 00:49:25;;;;;;;;;;;;;;;-147.89;100.00;60788.38;4230126;28;19923;-65
2023/10/16 00:51:28;;;;;;;;;;;;;;;-147.89;100.00;60788.38;4230419;28;19924;-65
2023/10/16 00:53:40;;;;;;;;;;;;;;;-147.89;100.00;60788.38;4232659;28;20018;-65
2023/10/16 00:55:42;;;;;;;;;;;;;;;-147.89;100.00;60788.38;4249471;27;20018;-63
2023/10/16 00:57:43;;;;;;;;;;;;;;;-147.89;100.00;60788.38;4233483;28;19978;-63
2023/10/16 00:59:45;;;;;;;;;;;;;;;-147.89;100.00;60788.38;4233301;28;19924;-63
2023/10/16 01:01:47;;;;;;;;;;;;;;;-147.89;100.00;60788.38;4233026;28;19931;-63
2023/10/16 01:03:49;;;;;;;;;;;;;;;-147.89;100.00;60788.38;4233460;28;19924;-64
2023/10/16 01:05:51;;;;;;;;;;;;;;;-147.89;100.00;60788.38;4233570;28;19927;-63
2023/10/16 01:07:52;;;;;;;;;;;;;;;-147.89;100.00;60788.38;4233312;28;19923;-63
2023/10/16 01:09:54;;;;;;;;;;;;;;;-147.89;100.00;60788.38;4233119;28;20034;-63
2023/10/16 01:11:57;;;;;;;;;;;;;;;-147.89;100.00;60788.38;4249003;27;19923;-63
2023/10/16 01:13:59;;;;;;;;;;;;;;;-147.89;100.00;60788.38;4233211;28;19969;-64
2023/10/16 01:16:00;;;;;;;;;;;;;;;-147.89;100.00;60788.38;4232917;28;20047;-63
2023/10/16 01:18:06;;;;;;;;;;;;;;;-147.89;100.00;60788.38;4233143;28;19924;-63
2023/10/16 01:20:08;;;;;;;;;;;;;;;-147.89;100.00;60788.38;4233015;28;20002;-63
2023/10/16 01:22:15;;;;;;;;;;;;;;;-147.89;100.00;60788.38;4233248;28;19923;-63
2023/10/16 01:24:24;;;;;;;;;;;;;;;-147.89;100.00;60788.38;4232807;28;19928;-63
2023/10/16 01:26:26;;;;;;;;;;;;;;;-147.89;100.00;60788.38;4233176;28;19959;-63
2023/10/16 01:28:30;;;;;;;;;;;;;;;-147.89;100.00;60788.38;4248937;27;19924;-63
2023/10/16 01:30:34;;;;;;;;;;;;;;;-147.89;100.00;60788.38;4232655;28;19932;-63
2023/10/16 01:32:40;;;;;;;;;;;;;;;-147.89;100.00;60788.38;4232796;28;19990;-64
2023/10/16 01:34:42;;;;;;;;;;;;;;;-147.89;100.00;60788.38;4233051;28;19928;-63
2023/10/16 01:36:47;;;;;;;;;;;;;;;-147.89;100.00;60788.38;4232811;28;19930;-63
2023/10/16 01:38:49;;;;;;;;;;;;;;;-147.89;100.00;60788.38;4232626;28;19967;-63
2023/10/16 01:41:13;;;;;;;;;;;;;;;-147.89;100.00;60788.38;4232575;28;19976;-63
2023/10/16 01:43:16;;;;;;;;;;;;;;;-147.89;100.00;60788.38;4232612;28;19927;-63
2023/10/16 01:45:19;;;;;;;;;;;;;;;-147.89;100.00;60788.38;4232681;28;20296;-63
2023/10/16 01:47:22;;;;;;;;;;;;;;;-147.89;100.00;60788.38;4232715;28;19977;-62
2023/10/16 01:49:24;;;;;;;;;;;;;;;-147.89;100.00;60788.38;4232555;28;19934;-63
2023/10/16 01:51:29;;;;;;;;;;;;;;;-147.89;100.00;60788.38;4232669;28;19963;-62
2023/10/16 01:53:36;;;;;;;;;;;;;;;-147.89;100.00;60788.38;4232467;28;19989;-63
2023/10/16 01:55:38;;;;;;;;;;;;;;;-147.89;100.00;60788.38;4232601;28;20365;-63
2023/10/16 01:57:40;;;;;;;;;;;;;;;-147.89;100.00;60788.38;4232576;28;19931;-63
2023/10/16 01:59:43;;;;;;;;;;;;;;;-147.89;100.00;60788.38;4231900;28;19927;-63
2023/10/16 02:01:45;;;;;;;;;;;;;;;-147.89;100.00;60788.38;4232375;28;19924;-63
2023/10/16 02:03:48;;;;;;;;;;;;;;;-147.89;100.00;60788.38;4247722;27;19923;-63
2023/10/16 02:05:50;;;;;;;;;;;;;;;-147.89;100.00;60788.38;4231722;28;19924;-63
2023/10/16 02:07:56;;;;;;;;;;;;;;;-147.89;100.00;60788.38;4232231;28;19981;-63
2023/10/16 02:09:57;;;;;;;;;;;;;;;-147.89;100.00;60788.38;4232172;28;20008;-63
2023/10/16 02:11:59;;;;;;;;;;;;;;;-147.89;100.00;60788.38;4232310;28;19923;-63
2023/10/16 02:14:01;;;;;;;;;;;;;;;-147.89;100.00;60788.38;4232037;28;19935;-63
2023/10/16 02:16:06;;;;;;;;;;;;;;;-147.89;100.00;60788.38;4232349;28;19924;-63
2023/10/16 02:18:09;;;;;;;;;;;;;;;-147.89;100.00;60788.38;4232030;28;20304;-63
2023/10/16 02:20:13;;;;;;;;;;;;;;;-147.89;100.00;60788.38;4232094;28;20018;-63
2023/10/16 02:22:16;;;;;;;;;;;;;;;-147.89;100.00;60788.38;4232102;28;19953;-63
2023/10/16 02:24:18;;;;;;;;;;;;;;;-147.89;100.00;60788.38;4231869;28;19999;-63
2023/10/16 02:26:21;;;;;;;;;;;;;;;-147.89;100.00;60788.38;4231940;28;19930;-63
2023/10/16 02:28:23;;;;;;;;;;;;;;;-147.89;100.00;60788.38;4231684;28;19974;-63
2023/10/16 02:32:26;;;;;;;;;;;;;;;-147.89;100.00;60788.38;4231838;28;19959;-63
2023/10/16 02:34:27;;;;;;;;;;;;;;;-147.89;100.00;60788.38;4231917;28;19924;-62
2023/10/16 02:36:29;;;;;;;;;;;;;;;-147.89;100.00;60788.38;4231754;28;19923;-62
2023/10/16 02:38:31;;;;;;;;;;;;;;;-147.89;100.00;60788.38;4231752;28;19954;-62
2023/10/16 02:40:33;;;;;;;;;;;;;;;-147.89;100.00;60788.38;4231770;28;20374;-63
2023/10/16 02:42:39;;;;;;;;;;;;;;;-147.89;100.00;60788.38;4231678;28;19928;-63
2023/10/16 02:44:45;;;;;;;;;;;;;;;-147.89;100.00;60788.38;4231845;28;19931;-63
2023/10/16 02:46:52;;;;;;;;;;;;;;;-147.89;100.00;60788.38;4246937;27;19923;-64
2023/10/16 02:48:54;;;;;;;;;;;;;;;-147.89;100.00;60788.38;4231698;28;20300;-63
2023/10/16 02:50:59;;;;;;;;;;;;;;;-147.89;100.00;60788.38;4231456;28;20435;-63
2023/10/16 02:53:00;;;;;;;;;;;;;;;-147.89;100.00;60788.38;4231707;28;20394;-62
2023/10/16 02:55:02;;;;;;;;;;;;;;;-147.89;100.00;60788.38;4231419;28;19927;-62
2023/10/16 02:57:04;;;;;;;;;;;;;;;-147.89;100.00;60788.38;4231238;28;19930;-62
2023/10/16 02:59:08;;;;;;;;;;;;;;;-147.89;100.00;60788.38;4231471;28;19924;-62
2023/10/16 03:01:18;;;;;;;;;;;;;;;-147.89;100.00;60788.38;4213219;28;19997;-63
2023/10/16 03:03:21;;;;;;;;;;;;;;;-147.89;100.00;60788.38;4231223;28;19924;-63
2023/10/16 03:05:28;;;;;;;;;;;;;;;-147.89;100.00;60788.38;4231196;28;19977;-64
2023/10/16 03:07:30;;;;;;;;;;;;;;;-147.89;100.00;60788.38;4231486;28;20304;-63
2023/10/16 03:09:36;;;;;;;;;;;;;;;-147.89;100.00;60788.38;4230205;28;19927;-63
2023/10/16 03:11:38;;;;;;;;;;;;;;;-147.89;100.00;60788.38;4231032;28;19924;-62
2023/10/16 03:13:40;;;;;;;;;;;;;;;-147.89;100.00;60788.38;4231486;28;19946;-62
2023/10/16 03:15:48;;;;;;;;;;;;;;;-147.89;100.00;60788.38;4230869;28;19923;-63
2023/10/16 03:17:54;;;;;;;;;;;;;;;-147.89;100.00;60788.38;4231029;28;19927;-63
2023/10/16 03:20:06;;;;;;;;;;;;;;;-147.89;100.00;60788.38;4230911;28;19977;-63
2023/10/16 03:22:11;;;;;;;;;;;;;;;-147.89;100.00;60788.38;4231311;28;20404;-64
2023/10/16 03:24:13;;;;;;;;;;;;;;;-147.89;100.00;60788.38;4230924;28;19935;-64
2023/10/16 03:26:25;;;;;;;;;;;;;;;-147.89;100.00;60788.38;4230785;28;19931;-63
2023/10/16 03:28:31;;;;;;;;;;;;;;;-147.89;100.00;60788.38;4231117;28;19934;-63
2023/10/16 03:30:33;;;;;;;;;;;;;;;-147.89;100.00;60788.38;4231097;28;20442;-63
2023/10/16 03:32:39;;;;;;;;;;;;;;;-147.89;100.00;60788.38;4231272;28;19931;-63
2023/10/16 03:34:41;;;;;;;;;;;;;;;-147.89;100.00;60788.38;4230869;28;19924;-63
2023/10/16 03:36:43;;;;;;;;;;;;;;;-147.89;100.00;60788.38;4231031;28;20023;-64
2023/10/16 03:38:45;;;;;;;;;;;;;;;-147.89;100.00;60788.38;4230841;28;19924;-63
2023/10/16 03:40:52;;;;;;;;;;;;;;;-147.89;100.00;60788.38;4230383;28;19951;-63
2023/10/16 03:42:58;;;;;;;;;;;;;;;-147.89;100.00;60788.38;4230934;28;19924;-63
2023/10/16 03:45:02;;;;;;;;;;;;;;;-147.89;100.00;60788.38;4230956;28;19973;-63
2023/10/16 03:47:06;;;;;;;;;;;;;;;-147.89;100.00;60788.38;4246692;27;19973;-64
2023/10/16 03:49:08;;;;;;;;;;;;;;;-147.89;100.00;60788.38;4230726;28;20361;-63
2023/10/16 03:51:11;;;;;;;;;;;;;;;-147.89;100.00;60788.38;4230823;28;19951;-63
2023/10/16 03:53:18;;;;;;;;;;;;;;;-147.89;100.00;60788.38;4230613;28;19969;-63
2023/10/16 03:55:25;;;;;;;;;;;;;;;-147.89;100.00;60788.38;4230503;28;19930;-63
2023/10/16 03:57:32;;;;;;;;;;;;;;;-147.89;100.00;60788.38;4230675;28;20003;-63
2023/10/16 03:59:33;;;;;;;;;;;;;;;-147.89;100.00;60788.38;4230598;28;19935;-63
2023/10/16 04:01:37;;;;;;;;;;;;;;;-147.89;100.00;60788.38;4230804;28;20385;-64
2023/10/16 04:03:57;;;;;;;;;;;;;;;-147.89;100.00;60788.38;4230890;28;19959;-64
2023/10/16 04:06:08;;;;;;;;;;;;;;;-147.89;100.00;60788.38;4230439;28;19927;-63
2023/10/16 04:08:14;;;;;;;;;;;;;;;-147.89;100.00;60788.38;4230498;28;19970;-64
2023/10/16 04:10:27;;;;;;;;;;;;;;;-147.89;100.00;60788.38;4230368;28;19924;-64
2023/10/16 04:12:33;;;;;;;;;;;;;;;-147.89;100.00;60788.38;4230683;28;19931;-63
2023/10/16 04:14:55;;;;;;;;;;;;;;;-147.89;100.00;60788.38;4230558;28;19955;-63
2023/10/16 04:16:56;;;;;;;;;;;;;;;-147.89;100.00;60788.38;4230414;28;20354;-62
2023/10/16 04:19:34;;;;;;;;;;;;;;;-147.89;100.00;60788.38;4230326;28;19924;-62
2023/10/16 04:21:43;;;;;;;;;;;;;;;-147.89;100.00;60788.38;4230432;28;19927;-64
2023/10/16 04:26:25;;;;;;;;;;;;;;;-147.89;100.00;60788.38;4230581;28;19923;-63
2023/10/16 04:28:28;;;;;;;;;;;;;;;-147.89;100.00;60788.38;4231851;28;19924;-63
2023/10/16 04:32:40;;;;;;;;;;;;;;;-147.89;100.00;60788.38;4233896;28;20373;-63
2023/10/16 04:34:52;;;;;;;;;;;;;;;-147.89;100.00;60788.38;4233860;28;19931;-62
2023/10/16 04:46:23;;;;;;;;;;;;;;;-147.89;100.00;60788.38;4249380;27;19930;-63
2023/10/16 04:49:14;;;;;;;;;;;;;;;-147.89;100.00;60788.38;4233590;28;19924;-63
2023/10/16 04:51:01;;;;;;;;;;;;;;;-147.89;100.00;60788.38;4226264;28;20301;-64
2023/10/16 04:53:22;;;;;;;;;;;;;;;-147.89;100.00;60788.38;4233202;28;20039;-65
2023/10/16 04:58:16;;;;;;;;;;;;;;;-147.89;100.00;60788.38;4233562;28;20292;-65
2023/10/16 05:00:54;;;;;;;;;;;;;;;-147.89;100.00;60788.38;4233121;28;19977;-65
2023/10/16 05:03:05;;;;;;;;;;;;;;;-147.89;100.00;60788.38;4233319;28;20355;-62
2023/10/16 05:07:46;;;;;;;;;;;;;;;-147.89;100.00;60788.38;4233062;28;20400;-62
2023/10/16 05:10:12;;;;;;;;;;;;;;;-147.89;100.00;60788.38;4233103;28;19923;-62
2023/10/16 05:15:36;;;;;;;;;;;;;;;-147.89;100.00;60788.38;4233446;28;19958;-65
2023/10/16 05:17:19;;;;;;;;;;;;;;;-147.89;100.00;60788.38;4233006;28;19932;-63
2023/10/16 06:15:25;;;;;;;;;;;;;;;-147.89;100.00;60788.38;4180129;28;19929;-62
2023/10/16 06:17:27;;;;;;;;;;;;;;;-147.89;100.00;60788.38;4179983;28;19924;-63
2023/10/16 06:19:28;;;;;;;;;;;;;;;-147.89;100.00;60788.38;4179976;28;19956;-62
2023/10/16 06:21:30;;;;;;;;;;;;;;;-147.89;100.00;60788.38;4179908;28;19924;-63
2023/10/16 06:23:33;;;;;;;;;;;;;;;-147.89;100.00;60788.38;4179882;28;19925;-63
2023/10/16 06:25:35;;;;;;;;;;;;;;;-147.89;100.00;60788.38;4180024;28;19925;-62
2023/10/16 06:27:41;;;;;;;;;;;;;;;-147.89;100.00;60788.38;4180025;28;19960;-63
2023/10/16 06:30:01;;;;;;;;;;;;;;;-147.89;100.00;60788.38;4179729;28;19932;-63
2023/10/16 06:32:25;;;;;;;;;;;;;;;-147.89;100.00;60788.38;4179860;28;19932;-66
2023/10/16 06:34:25;;;;;;;;;;;;;;;-147.89;100.00;60788.38;4179572;28;19987;-63
2023/10/16 06:36:31;;;;;;;;;;;;;;;-147.89;100.00;60788.38;4179786;28;19947;-63
2023/10/16 06:38:34;;;;;;;;;;;;;;;-147.89;100.00;60788.38;4206008;28;20339;-63
2023/10/16 06:40:35;;;;;;;;;;;;;;;-147.89;100.00;60788.38;4214666;28;19928;-63
2023/10/16 06:42:37;;;;;;;;;;;;;;;-147.89;100.00;60788.38;4215160;28;19934;-63
2023/10/16 06:44:42;;;;;;;;;;;;;;;-147.89;100.00;60788.38;4214680;28;20015;-63
2023/10/16 06:46:44;;;;;;;;;;;;;;;-147.89;100.00;60788.38;4214975;28;19969;-63
2023/10/16 06:48:48;;;;;;;;;;;;;;;-147.89;100.00;60788.38;4214327;28;19935;-63
2023/10/16 06:50:53;;;;;;;;;;;;;;;-147.89;100.00;60788.38;4214072;28;19927;-63
2023/10/16 06:52:57;;;;;;;;;;;;;;;-147.89;100.00;60788.38;4214691;28;20417;-64
2023/10/16 06:54:58;;;;;;;;;;;;;;;-147.89;100.00;60788.38;4214490;28;19949;-63
2023/10/16 06:57:05;;;;;;;;;;;;;;;-147.89;100.00;60788.38;4214700;28;19931;-63
2023/10/16 06:59:06;;;;;;;;;;;;;;;-147.89;100.00;60788.38;4214519;28;19974;-63
2023/10/16 07:01:10;;;;;;;;;;;;;;;-147.89;100.00;60788.38;4214520;28;19924;-63
2023/10/16 07:03:12;;;;;;;;;;;;;;;-147.89;100.00;60788.38;4214012;28;19924;-63
2023/10/16 07:05:14;;;;;;;;;;;;;;;-147.89;100.00;60788.38;4214650;28;20032;-63
2023/10/16 07:07:16;;;;;;;;;;;;;;;-147.89;100.00;60788.38;4214575;28;19928;-63
2023/10/16 07:09:22;;;;;;;;;;;;;;;-147.89;100.00;60788.38;4214531;28;20003;-62
2023/10/16 07:11:24;;;;;;;;;;;;;;;-147.89;100.00;60788.38;4214421;28;19977;-62
2023/10/16 07:13:29;;;;;;;;;;;;;;;-147.89;100.00;60788.38;4214253;28;19928;-62
2023/10/16 07:15:31;;;;;;;;;;;;;;;-147.89;100.00;60788.38;4214487;28;19924;-63
2023/10/16 07:17:33;;;;;;;;;;;;;;;-147.89;100.00;60788.38;4221622;28;19968;-63
2023/10/16 07:19:35;;;;;;;;;;;;;;;-147.89;100.00;60788.38;4231098;28;19924;-63
2023/10/16 07:21:36;;;;;;;;;;;;;;;-147.89;100.00;60788.38;4231012;28;19935;-63
2023/10/16 07:23:39;;;;;;;;;;;;;;;-147.89;100.00;60788.38;4230817;28;19930;-63
2023/10/16 07:25:56;;;;;;;;;;;;;;;-147.89;100.00;60788.38;4231147;28;20006;-63
2023/10/16 07:28:00;;;;;;;;;;;;;;;-147.89;100.00;60788.38;4230879;28;19924;-63
2023/10/16 07:30:21;;;;;;;;;;;;;;;-147.89;100.00;60788.38;4231047;28;19976;-62
2023/10/16 07:32:23;;;;;;;;;;;;;;;-147.89;100.00;60788.38;4230736;28;20481;-63
2023/10/16 07:34:25;;;;;;;;;;;;;;;-147.89;100.00;60788.38;4231069;28;19966;-63
2023/10/16 07:36:27;;;;;;;;;;;;;;;-147.89;100.00;60788.38;4231021;28;19928;-63
2023/10/16 07:38:28;;;;;;;;;;;;;;;-147.89;100.00;60788.38;4230777;28;19959;-65
2023/10/16 07:40:32;;;;;;;;;;;;;;;-147.89;100.00;60788.38;4230928;28;21010;-63
2023/10/16 07:42:35;;;;;;;;;;;;;;;-147.89;100.00;60788.38;4230864;28;19934;-64
2023/10/16 07:44:41;;;;;;;;;;;;;;;-147.89;100.00;60788.38;4231006;28;20472;-66
2023/10/16 07:46:44;;;;;;;;;;;;;;;-147.89;100.00;60788.38;4230588;28;19958;-65
2023/10/16 07:48:52;;;;;;;;;;;;;;;-147.89;100.00;60788.38;4230822;28;19931;-65
2023/10/16 07:50:53;;;;;;;;;;;;;;;-147.89;100.00;60788.38;4230666;28;20358;-65
2023/10/16 07:52:55;;;;;;;;;;;;;;;-147.89;100.00;60788.38;4230987;28;20323;-65
2023/10/16 07:54:56;;;;;;;;;;;;;;;-147.89;100.00;60788.38;4230798;28;19934;-65
2023/10/16 07:56:58;;;;;;;;;;;;;;;-147.89;100.00;60788.38;4230717;28;19927;-62
2023/10/16 07:59:06;;;;;;;;;;;;;;;-147.89;100.00;60788.38;4230772;28;20318;-62
2023/10/16 08:03:14;;;;;;;;;;;;;;;-147.89;100.00;60788.38;4230488;28;20253;-63
2023/10/16 08:05:16;;;;;;;;;;;;;;;-147.89;100.00;60788.38;4230567;28;19924;-63
2023/10/16 08:07:18;;;;;;;;;;;;;;;-147.89;100.00;60788.38;4230504;28;20419;-63
2023/10/16 08:11:24;;;;;;;;;;;;;;;-147.89;100.00;60788.38;4230813;28;19924;-62
2023/10/16 08:13:25;;;;;;;;;;;;;;;-147.89;100.00;60788.38;4230482;28;19924;-63
2023/10/16 08:15:27;;;;;;;;;;;;;;;-147.89;100.00;60788.38;4230086;28;20018;-64
2023/10/16 08:17:32;;;;;;;;;;;;;;;-147.89;100.00;60788.38;4230274;28;20014;-62
2023/10/16 08:19:34;;;;;;;;;;;;;;;-147.89;100.00;60788.38;4230538;28;19931;-62
2023/10/16 08:21:39;;;;;;;;;;;;;;;-147.89;100.00;60788.38;4230272;28;20014;-62
2023/10/16 08:23:45;;;;;;;;;;;;;;;-147.89;100.00;60788.38;4230406;28;19970;-63
2023/10/16 08:25:52;;;;;;;;;;;;;;;-147.89;100.00;60788.38;4230584;28;20022;-62
2023/10/16 08:28:18;;;;;;;;;;;;;;;-147.89;100.00;60788.38;4212269;28;19924;-63
2023/10/16 08:30:33;;;;;;;;;;;;;;;-147.89;100.00;60788.38;4230160;28;20281;-63
2023/10/16 08:34:49;;;;;;;;;;;;;;;-147.89;100.00;60788.38;4230512;28;19923;-63
2023/10/16 08:36:51;;;;;;;;;;;;;;;-147.89;100.00;60788.38;4230451;28;20016;-64
2023/10/16 08:38:53;;;;;;;;;;;;;;;-147.89;100.00;60788.38;4230520;28;20367;-62
2023/10/16 08:40:57;;;;;;;;;;;;;;;-147.89;100.00;60788.38;4230360;28;19969;-62
2023/10/16 08:43:00;;;;;;;;;;;;;;;-147.89;100.00;60788.38;4230555;28;19948;-63
2023/10/16 08:45:15;;;;;;;;;;;;;;;-147.89;100.00;60788.38;4229840;28;19924;-63
2023/10/16 08:47:26;;;;;;;;;;;;;;;-147.89;100.00;60788.38;4230350;28;20342;-63
2023/10/16 08:49:33;;;;;;;;;;;;;;;-147.89;100.00;60788.38;4230582;28;20385;-63
2023/10/16 08:51:53;;;;;;;;;;;;;;;-147.89;100.00;60788.38;4214494;28;19980;-63
2023/10/16 08:53:59;;;;;;;;;;;;;;;-147.89;100.00;60788.38;4230457;28;19935;-63
2023/10/16 08:56:07;;;;;;;;;;;;;;;-147.89;100.00;60788.38;4230218;28;19927;-63
2023/10/16 08:58:11;;;;;;;;;;;;;;;-147.89;100.00;60788.38;4230161;28;19976;-63
2023/10/16 09:00:20;;;;;;;;;;;;;;;-147.89;100.00;60788.38;4230019;28;19949;-63
2023/10/16 09:02:24;;;;;;;;;;;;;;;-147.89;100.00;60788.38;4230219;28;19923;-63
2023/10/16 09:04:27;;;;;;;;;;;;;;;-147.89;100.00;60788.38;4230178;28;19927;-63
2023/10/16 09:06:33;;;;;;;;;;;;;;;-147.89;100.00;60788.38;4229992;28;19924;-63
2023/10/16 09:08:35;;;;;;;;;;;;;;;-147.89;100.00;60788.38;4229890;28;19924;-64
2023/10/16 09:10:40;;;;;;;;;;;;;;;-147.89;100.00;60788.38;4230336;28;19935;-63
2023/10/16 09:12:52;;;;;;;;;;;;;;;-147.89;100.00;60788.38;4229950;28;19931;-63
2023/10/16 09:15:05;;;;;;;;;;;;;;;-147.89;100.00;60788.38;4232424;28;19924;-64
2023/10/16 09:17:07;;;;;;;;;;;;;;;-147.89;100.00;60788.38;4232819;28;19931;-63
2023/10/16 09:19:11;;;;;;;;;;;;;;;-147.89;100.00;60788.38;4215099;28;19924;-63
2023/10/16 09:21:13;;;;;;;;;;;;;;;-147.89;100.00;60788.38;4233148;28;19931;-63
2023/10/16 09:23:15;;;;;;;;;;;;;;;-147.89;100.00;60788.38;4233251;28;19971;-63
2023/10/16 09:25:22;;;;;;;;;;;;;;;-147.89;100.00;60788.38;4232894;28;19924;-63
2023/10/16 09:27:41;;;;;;;;;;;;;;;-147.89;100.00;60788.38;4233031;28;19977;-63
2023/10/16 09:29:55;;;;;;;;;;;;;;;-147.89;100.00;60788.38;4232652;28;19927;-63
2023/10/16 09:32:02;;;;;;;;;;;;;;;-147.89;100.00;60788.38;4233213;28;19960;-63
2023/10/16 09:34:04;;;;;;;;;;;;;;;-147.89;100.00;60788.38;4233072;28;19985;-63
2023/10/16 09:36:17;;;;;;;;;;;;;;;-147.89;100.00;60788.38;4232749;28;19927;-63
2023/10/16 09:38:19;;;;;;;;;;;;;;;-147.89;100.00;60788.38;4232793;28;20347;-63
2023/10/16 09:40:37;;;;;;;;;;;;;;;-147.89;100.00;60788.38;4232683;28;19927;-63
2023/10/16 09:42:45;;;;;;;;;;;;;;;-147.89;100.00;60788.38;4232387;28;20393;-63
2023/10/16 09:47:25;;;;;;;;;;;;;;;-147.89;100.00;60788.38;4232840;28;19977;-62
2023/10/16 09:49:28;;;;;;;;;;;;;;;-147.89;100.00;60788.38;4232684;28;19924;-62
2023/10/16 09:51:35;;;;;;;;;;;;;;;-147.89;100.00;60788.38;4232630;28;19924;-63
2023/10/16 09:53:38;;;;;;;;;;;;;;;-147.89;100.00;60788.38;4232497;28;19974;-63
2023/10/16 09:55:44;;;;;;;;;;;;;;;-147.89;100.00;60788.38;4232786;28;19924;-62
2023/10/16 09:57:54;;;;;;;;;;;;;;;-147.89;100.00;60788.38;4232306;28;19938;-63
2023/10/16 10:02:18;;;;;;;;;;;;;;;-147.89;100.00;60788.38;4232476;28;19923;-62
2023/10/16 10:04:24;;;;;;;;;;;;;;;-147.89;100.00;60788.38;4232497;28;20338;-63
2023/10/16 10:06:34;;;;;;;;;;;;;;;-147.89;100.00;60788.38;4232492;28;19931;-63
2023/10/16 10:11:16;;;;;;;;;;;;;;;-147.89;100.00;60788.38;4180164;28;19925;-63
2023/10/16 10:13:34;;;;;;;;;;;;;;;-147.89;100.00;60788.38;4180172;28;20007;-63
2023/10/16 10:15:39;;;;;;;;;;;;;;;-147.89;100.00;60788.38;4180298;28;19953;-63
2023/10/16 10:17:46;;;;;;;;;;;;;;;-147.89;100.00;60788.38;4179929;28;20335;-63
2023/10/16 10:19:54;;;;;;;;;;;;;;;-147.89;100.00;60788.38;4180139;28;20523;-62
2023/10/16 10:21:57;;;;;;;;;;;;;;;-147.89;100.00;60788.38;4179951;28;20012;-63
2023/10/16 10:24:03;;;;;;;;;;;;;;;-147.89;100.00;60788.38;4179827;28;20008;-62
2023/10/16 10:26:07;;;;;;;;;;;;;;;-147.89;100.00;60788.38;4178492;28;19929;-62
2023/10/16 10:28:22;;;;;;;;;;;;;;;-147.89;100.00;60788.38;4179683;28;20019;-63
2023/10/16 10:30:27;;;;;;;;;;;;;;;-147.89;100.00;60788.38;4179813;28;20296;-62
2023/10/16 10:32:28;;;;;;;;;;;;;;;-147.89;100.00;60788.38;4179796;28;20430;-62
2023/10/16 10:34:30;;;;;;;;;;;;;;;-147.89;100.00;60788.38;4179736;28;19932;-63
2023/10/16 10:36:33;;;;;;;;;;;;;;;-147.89;100.00;60788.38;4179747;28;19979;-62
2023/10/16 10:38:36;;;;;;;;;;;;;;;-147.89;100.00;60788.38;4179750;28;20015;-63
2023/10/16 10:40:37;;;;;;;;;;;;;;;-147.89;100.00;60788.38;4179353;28;19991;-64
2023/10/16 10:42:41;;;;;;;;;;;;;;;-147.89;100.00;60788.38;4179617;28;20040;-63
2023/10/16 10:44:52;;;;;;;;;;;;;;;-147.89;100.00;60788.38;4179631;28;19925;-64
2023/10/16 10:46:54;;;;;;;;;;;;;;;-147.89;100.00;60788.38;4179621;28;20473;-64
2023/10/16 10:48:56;;;;;;;;;;;;;;;-147.89;100.00;60788.38;4205236;28;19967;-64
2023/10/16 10:51:03;;;;;;;;;;;;;;;-147.89;100.00;60788.38;4214803;28;19970;-65
2023/10/16 10:53:13;;;;;;;;;;;;;;;-147.89;100.00;60788.38;4215052;28;20015;-65
2023/10/16 10:55:18;;;;;;;;;;;;;;;-147.89;100.00;60788.38;4214410;28;20028;-62
2023/10/16 10:57:24;;;;;;;;;;;;;;;-147.89;100.00;60788.38;4214758;28;19928;-65
2023/10/16 10:59:56;;;;;;;;;;;;;;;-147.89;100.00;60788.38;4214764;28;19955;-65
2023/10/16 11:02:09;;;;;;;;;;;;;;;-147.89;100.00;60788.38;4205803;28;19924;-64
2023/10/16 11:04:16;;;;;;;;;;;;;;;-147.89;100.00;60788.38;4214608;28;19924;-65
2023/10/16 11:06:18;;;;;;;;;;;;;;;-147.89;100.00;60788.38;4214454;28;19931;-64
2023/10/16 11:08:25;;;;;;;;;;;;;;;-147.89;100.00;60788.38;4214522;28;20023;-64
2023/10/16 11:10:27;;;;;;;;;;;;;;;-147.89;100.00;60788.38;4214197;28;19928;-65
2023/10/16 11:12:30;;;;;;;;;;;;;;;-147.89;100.00;60788.38;4214465;28;20011;-63
2023/10/16 11:14:33;;;;;;;;;;;;;;;-147.89;100.00;60788.38;4214381;28;20275;-64
2023/10/16 11:16:41;;;;;;;;;;;;;;;-147.89;100.00;60788.38;4214178;28;19969;-65
2023/10/16 11:18:59;;;;;;;;;;;;;;;-147.89;100.00;60788.38;4214284;28;19969;-64
2023/10/16 11:21:04;;;;;;;;;;;;;;;-147.89;100.00;60788.38;4214561;28;19950;-64
2023/10/16 11:23:12;;;;;;;;;;;;;;;-147.89;100.00;60788.38;4214356;28;20300;-65
2023/10/16 11:25:14;;;;;;;;;;;;;;;-147.89;100.00;60788.38;4213775;28;19924;-65
2023/10/16 11:27:16;;;;;;;;;;;;;;;-147.89;100.00;60788.38;4214187;28;19924;-65
2023/10/16 11:29:19;;;;;;;;;;;;;;;-147.89;100.00;60788.38;4214279;28;19924;-65
2023/10/16 11:31:21;;;;;;;;;;;;;;;-147.89;100.00;60788.38;4214304;28;20477;-64
2023/10/16 11:33:46;;;;;;;;;;;;;;;-147.89;100.00;60788.38;4214181;28;19924;-65
2023/10/16 11:35:47;;;;;;;;;;;;;;;-147.89;100.00;60788.38;4214405;28;19924;-65
2023/10/16 11:37:50;;;;;;;;;;;;;;;-147.89;100.00;60788.38;4213851;28;19928;-65
2023/10/16 11:39:54;;;;;;;;;;;;;;;-147.89;100.00;60788.38;4213681;28;19924;-65
2023/10/16 11:41:58;;;;;;;;;;;;;;;-147.89;100.00;60788.38;4214194;28;20421;-65
2023/10/16 11:44:13;;;;;;;;;;;;;;;-147.89;100.00;60788.38;4213960;28;19951;-64
2023/10/16 11:48:50;;;;;;;;;;;;;;;-147.89;100.00;60788.38;4146033;28;20387;-64
2023/10/16 11:50:58;;;;;;;;;;;;;;;-147.89;100.00;60788.38;4145802;28;19976;-64
2023/10/16 11:52:59;;;;;;;;;;;;;;;-147.89;100.00;60788.38;4145506;28;19929;-65
2023/10/16 11:55:07;;;;;;;;;;;;;;;-147.89;100.00;60788.38;4145905;28;19925;-65
2023/10/16 11:57:13;;;;;;;;;;;;;;;-147.89;100.00;60788.38;4145881;28;20000;-64
2023/10/16 11:59:15;;;;;;;;;;;;;;;-147.89;100.00;60788.38;4145705;28;20024;-63
2023/10/16 12:01:17;;;;;;;;;;;;;;;-147.89;100.00;60788.38;4145746;28;19926;-63
2023/10/16 12:03:39;;;;;;;;;;;;;;;-147.89;100.00;60788.38;4145744;28;19929;-64
2023/10/16 12:05:42;;;;;;;;;;;;;;;-147.89;100.00;60788.38;4145789;28;19925;-63
2023/10/16 12:07:44;;;;;;;;;;;;;;;-147.89;100.00;60788.38;4145348;28;19933;-62